Time;durP1;ratioP1;P1;durP2;ratioP2;P2;SDS_P1;SDS_P2;PMS_P1;PMS_P2;Temp;Humidity;BMP_temperature;BMP_pressure;BME280_temperature;BME280_humidity;BME280_pressure;Samples;Min_cycle;Max_cycle;Signal;HPM_P1;HPM_P2
2021/06/08 00:00:53;;;;;;;15.10;13.52;;;15.60;82.70;;;;;;5087433;28;20392;-71
2021/06/08 00:03:19;;;;;;;16.00;12.85;;;15.50;82.70;;;;;;5069695;28;20030;-72
2021/06/08 00:05:44;;;;;;;14.77;12.98;;;15.50;83.00;;;;;;5053045;28;20033;-72
2021/06/08 00:08:10;;;;;;;13.27;12.07;;;15.50;83.00;;;;;;5050156;28;20124;-76
2021/06/08 00:10:36;;;;;;;14.77;13.18;;;15.50;83.00;;;;;;5084768;28;20036;-73
2021/06/08 00:13:02;;;;;;;13.55;12.25;;;15.50;83.10;;;;;;5073828;28;20033;-72
2021/06/08 00:15:27;;;;;;;13.85;12.10;;;15.50;83.00;;;;;;5090444;28;20028;-73
2021/06/08 00:17:53;;;;;;;12.45;11.15;;;15.60;82.90;;;;;;5074072;28;20037;-72
2021/06/08 00:20:19;;;;;;;13.07;11.77;;;15.60;82.70;;;;;;5074921;28;20310;-74
2021/06/08 00:22:44;;;;;;;14.65;11.48;;;15.70;82.30;;;;;;5073752;28;20062;-73
2021/06/08 00:25:10;;;;;;;12.73;11.18;;;15.70;82.10;;;;;;5075196;28;20028;-73
2021/06/08 00:27:36;;;;;;;14.73;13.25;;;15.80;82.10;;;;;;5074449;28;20097;-73
2021/06/08 00:30:03;;;;;;;15.20;13.30;;;15.70;82.10;;;;;;5074054;28;20377;-73
2021/06/08 00:32:29;;;;;;;13.80;12.50;;;15.60;82.30;;;;;;5073152;28;20377;-73
2021/06/08 00:34:54;;;;;;;14.30;12.90;;;15.40;82.60;;;;;;5090889;28;20024;-72
2021/06/08 00:37:20;;;;;;;14.23;12.77;;;15.30;82.90;;;;;;5073254;28;20396;-72
2021/06/08 00:39:46;;;;;;;16.50;14.30;;;15.30;83.20;;;;;;5074918;28;20075;-73
2021/06/08 00:42:11;;;;;;;16.75;14.98;;;15.20;83.20;;;;;;5075073;28;20388;-72
2021/06/08 00:44:37;;;;;;;16.88;15.13;;;15.20;83.40;;;;;;5072919;28;20522;-72
2021/06/08 00:47:03;;;;;;;14.63;13.13;;;15.10;83.50;;;;;;5073517;28;20028;-72
2021/06/08 00:49:29;;;;;;;15.32;13.73;;;15.00;83.80;;;;;;5072628;28;20038;-72
2021/06/08 00:51:54;;;;;;;15.82;13.30;;;15.10;83.90;;;;;;5075059;28;20025;-72
2021/06/08 00:54:20;;;;;;;18.38;14.65;;;15.10;83.60;;;;;;5072964;28;20358;-73
2021/06/08 00:56:46;;;;;;;16.67;13.45;;;15.10;83.60;;;;;;5074972;28;20024;-72
2021/06/08 00:59:12;;;;;;;15.68;13.13;;;15.00;83.70;;;;;;5073769;28;20058;-72
2021/06/08 01:01:38;;;;;;;14.88;12.60;;;15.10;83.80;;;;;;5072479;28;20032;-72
2021/06/08 01:04:06;;;;;;;14.13;12.82;;;15.20;83.50;;;;;;5074760;28;20028;-72
2021/06/08 01:06:37;;;;;;;14.15;12.75;;;15.20;83.30;;;;;;5073305;28;20032;-72
2021/06/08 01:09:07;;;;;;;13.52;12.20;;;15.30;83.10;;;;;;5072163;28;20039;-72
2021/06/08 01:11:34;;;;;;;13.95;12.05;;;15.40;83.00;;;;;;5072278;28;20075;-73
2021/06/08 01:13:59;;;;;;;14.40;12.98;;;15.50;82.80;;;;;;5072868;28;20078;-72
2021/06/08 01:16:25;;;;;;;12.60;11.40;;;15.50;82.50;;;;;;5072070;28;20028;-73
2021/06/08 01:18:50;;;;;;;13.25;11.82;;;15.50;82.30;;;;;;5072442;28;20028;-72
2021/06/08 01:21:16;;;;;;;13.18;11.77;;;15.60;82.10;;;;;;5072799;28;20400;-72
2021/06/08 01:23:45;;;;;;;12.57;11.38;;;15.60;81.90;;;;;;5072640;28;20037;-72
2021/06/08 01:26:11;;;;;;;12.93;11.73;;;15.60;81.80;;;;;;5074312;28;20053;-72
2021/06/08 01:28:37;;;;;;;13.45;12.15;;;15.60;81.70;;;;;;5073171;28;20025;-72
2021/06/08 01:31:11;;;;;;;13.75;12.35;;;15.60;81.60;;;;;;5074123;28;20039;-72
2021/06/08 01:33:41;;;;;;;12.50;11.20;;;15.60;81.50;;;;;;5072945;28;20028;-71
2021/06/08 01:36:11;;;;;;;12.23;11.02;;;15.60;81.60;;;;;;5072465;28;20101;-72
2021/06/08 01:38:38;;;;;;;13.65;12.25;;;15.60;81.60;;;;;;5071802;28;20037;-72
2021/06/08 01:41:04;;;;;;;12.88;11.63;;;15.60;81.40;;;;;;5073763;28;20116;-72
2021/06/08 01:43:30;;;;;;;14.75;12.93;;;15.60;81.40;;;;;;5071288;28;20123;-73
2021/06/08 01:45:56;;;;;;;13.35;12.05;;;15.50;81.30;;;;;;5073960;28;20345;-73
2021/06/08 01:48:22;;;;;;;14.10;12.70;;;15.40;81.50;;;;;;5072320;28;20438;-76
2021/06/08 01:50:50;;;;;;;13.55;12.25;;;15.40;81.60;;;;;;5071444;28;20042;-72
2021/06/08 01:53:22;;;;;;;14.38;12.90;;;15.40;81.80;;;;;;5056167;28;20025;-72
2021/06/08 01:55:51;;;;;;;15.35;13.75;;;15.30;81.80;;;;;;5073106;28;20029;-72
2021/06/08 01:58:43;;;;;;;15.30;12.45;;;15.30;81.80;;;;;;5072474;28;20024;-73
2021/06/08 02:01:40;;;;;;;15.48;13.27;;;15.30;81.90;;;;;;5071623;28;20397;-72
2021/06/08 02:04:27;;;;;;;15.70;14.07;;;15.20;81.80;;;;;;5073362;28;20020;-72
2021/06/08 02:07:21;;;;;;;16.83;15.07;;;15.00;81.90;;;;;;5072310;28;20028;-72
2021/06/08 02:09:52;;;;;;;15.55;13.93;;;14.90;82.40;;;;;;5072798;28;20376;-72
2021/06/08 02:12:20;;;;;;;13.45;12.23;;;14.80;82.60;;;;;;5072445;28;20083;-72
2021/06/08 02:14:59;;;;;;;16.70;14.23;;;14.70;82.80;;;;;;5071246;28;20676;-72
2021/06/08 02:17:33;;;;;;;14.98;13.38;;;14.70;83.00;;;;;;5072820;28;20389;-77
2021/06/08 02:20:09;;;;;;;14.88;13.40;;;14.70;83.00;;;;;;5073651;28;20032;-72
2021/06/08 02:22:38;;;;;;;14.25;12.73;;;14.80;83.00;;;;;;5072819;28;20071;-72
2021/06/08 02:25:06;;;;;;;13.95;12.55;;;14.80;83.10;;;;;;5073158;28;20040;-73
2021/06/08 02:27:33;;;;;;;13.63;12.25;;;14.80;83.20;;;;;;5072475;28;20029;-74
2021/06/08 02:29:59;;;;;;;13.98;12.38;;;14.80;83.00;;;;;;5072949;28;20020;-73
2021/06/08 02:32:29;;;;;;;13.75;12.43;;;14.90;82.90;;;;;;5072310;28;20032;-76
2021/06/08 02:34:55;;;;;;;13.38;11.98;;;14.90;82.70;;;;;;5073167;28;20052;-73
2021/06/08 02:37:23;;;;;;;14.27;12.88;;;14.90;82.50;;;;;;5071649;28;20591;-72
2021/06/08 02:39:49;;;;;;;13.10;11.80;;;14.90;82.50;;;;;;5070798;28;20020;-73
2021/06/08 02:42:18;;;;;;;13.73;12.32;;;14.90;82.40;;;;;;5071415;28;20040;-73
2021/06/08 02:44:45;;;;;;;15.30;13.25;;;14.80;82.30;;;;;;5072135;28;20032;-73
2021/06/08 02:47:12;;;;;;;13.85;12.40;;;14.70;82.40;;;;;;5072638;28;20385;-73
2021/06/08 02:49:38;;;;;;;14.70;13.18;;;14.60;82.80;;;;;;5070755;28;20078;-72
2021/06/08 02:52:05;;;;;;;15.75;13.25;;;14.50;83.00;;;;;;5071621;28;20024;-72
2021/06/08 02:54:32;;;;;;;15.07;13.43;;;14.60;83.00;;;;;;5054084;28;20123;-76
2021/06/08 02:56:58;;;;;;;13.68;11.85;;;14.40;82.70;;;;;;5070975;28;20040;-72
2021/06/08 02:59:28;;;;;;;13.93;12.60;;;14.40;82.90;;;;;;5072369;28;20028;-73
2021/06/08 03:01:57;;;;;;;13.95;12.55;;;14.40;83.00;;;;;;5070421;28;20556;-73
2021/06/08 03:04:28;;;;;;;13.45;12.15;;;14.30;83.00;;;;;;5071580;28;20057;-72
2021/06/08 03:06:56;;;;;;;13.63;12.15;;;14.30;83.10;;;;;;5071698;28;20024;-72
2021/06/08 03:09:34;;;;;;;13.60;11.48;;;14.30;83.10;;;;;;5070961;28;20098;-72
2021/06/08 03:12:04;;;;;;;13.13;11.63;;;14.30;83.10;;;;;;5072747;28;20051;-72
2021/06/08 03:14:31;;;;;;;13.38;12.02;;;14.30;83.00;;;;;;5070979;28;20456;-77
2021/06/08 03:16:59;;;;;;;13.55;12.10;;;14.40;82.90;;;;;;5070530;28;20029;-73
2021/06/08 03:19:31;;;;;;;16.15;13.95;;;14.40;82.80;;;;;;5072322;28;20024;-72
2021/06/08 03:22:03;;;;;;;15.02;13.20;;;14.30;82.60;;;;;;5070456;28;20389;-74
2021/06/08 03:24:32;;;;;;;16.47;14.67;;;14.20;82.90;;;;;;5071993;28;20031;-73
2021/06/08 03:27:00;;;;;;;13.80;12.50;;;14.00;83.00;;;;;;5070750;28;20323;-72
2021/06/08 03:29:27;;;;;;;15.43;13.73;;;14.00;83.30;;;;;;5071154;28;20029;-73
2021/06/08 03:31:53;;;;;;;15.90;14.18;;;14.10;83.40;;;;;;5071404;28;20016;-73
2021/06/08 03:34:20;;;;;;;15.32;13.82;;;14.00;83.40;;;;;;5071187;28;20043;-73
2021/06/08 03:36:52;;;;;;;16.05;13.80;;;13.90;83.50;;;;;;5069942;28;20055;-73
2021/06/08 03:39:20;;;;;;;15.13;13.63;;;13.90;83.60;;;;;;5072282;28;20460;-72
2021/06/08 03:41:47;;;;;;;17.45;15.10;;;13.80;83.70;;;;;;5070814;28;20086;-74
2021/06/08 03:44:17;;;;;;;16.35;14.68;;;13.80;83.80;;;;;;5071911;28;20027;-72
2021/06/08 03:46:47;;;;;;;16.00;14.30;;;13.70;84.30;;;;;;5052713;28;20377;-73
2021/06/08 03:49:16;;;;;;;17.60;13.70;;;13.80;84.00;;;;;;5071865;28;20028;-73
2021/06/08 03:51:42;;;;;;;17.05;14.18;;;13.80;84.10;;;;;;5069656;28;20056;-73
2021/06/08 03:54:11;;;;;;;15.68;13.90;;;13.90;84.00;;;;;;5070667;28;20110;-73
2021/06/08 03:56:40;;;;;;;15.68;14.00;;;14.30;83.40;;;;;;5071411;28;20484;-76
2021/06/08 03:59:09;;;;;;;15.63;13.90;;;14.90;82.00;;;;;;5070629;28;20025;-73
2021/06/08 04:01:36;;;;;;;13.88;11.88;;;15.30;80.40;;;;;;5071447;28;20112;-76
2021/06/08 04:04:02;;;;;;;14.60;13.18;;;15.30;80.00;;;;;;5072550;28;20036;-73
2021/06/08 04:06:27;;;;;;;14.98;13.48;;;15.30;79.70;;;;;;5080685;28;20565;-73
2021/06/08 04:08:55;;;;;;;14.23;12.40;;;15.30;79.40;;;;;;5085002;28;20040;-73
2021/06/08 04:11:21;;;;;;;12.93;11.43;;;15.30;79.40;;;;;;5071512;28;20037;-73
2021/06/08 04:13:47;;;;;;;13.18;11.77;;;15.50;79.30;;;;;;5071120;28;20526;-73
2021/06/08 04:16:12;;;;;;;11.85;10.65;;;16.00;78.40;;;;;;5070512;28;20498;-73
2021/06/08 04:18:39;;;;;;;11.75;10.45;;;16.40;77.10;;;;;;5069784;28;20020;-75
2021/06/08 04:21:06;;;;;;;12.50;11.25;;;17.10;75.70;;;;;;5070070;28;20025;-72
2021/06/08 04:23:32;;;;;;;10.65;9.55;;;18.50;72.30;;;;;;5070453;28;20036;-72
2021/06/08 04:25:58;;;;;;;11.40;9.25;;;19.90;68.90;;;;;;5070887;28;20114;-72
2021/06/08 04:28:26;;;;;;;11.20;10.10;;;21.10;65.30;;;;;;5071543;28;20027;-72
2021/06/08 04:30:54;;;;;;;12.30;8.30;;;22.00;62.00;;;;;;5070973;28;20033;-71
2021/06/08 04:33:30;;;;;;;9.18;8.38;;;22.70;60.00;;;;;;5071116;28;20037;-71
2021/06/08 04:35:56;;;;;;;8.95;8.15;;;23.00;57.80;;;;;;5069569;28;20039;-71
2021/06/08 04:38:23;;;;;;;9.52;8.10;;;23.20;56.20;;;;;;5069878;28;20041;-72
2021/06/08 04:40:50;;;;;;;9.15;8.25;;;23.00;56.30;;;;;;5069240;28;20497;-71
2021/06/08 04:43:24;;;;;;;8.75;7.90;;;22.70;56.60;;;;;;5053633;28;20523;-71
2021/06/08 04:45:51;;;;;;;7.82;7.05;;;23.00;55.50;;;;;;5070395;28;20020;-71
2021/06/08 04:48:17;;;;;;;8.20;7.40;;;23.00;55.50;;;;;;5071001;28;20036;-71
2021/06/08 04:50:42;;;;;;;7.88;6.15;;;23.70;54.40;;;;;;5053048;28;20086;-76
2021/06/08 04:53:08;;;;;;;7.18;6.45;;;24.50;53.10;;;;;;5071286;28;20033;-70
2021/06/08 04:55:34;;;;;;;7.10;6.40;;;25.20;51.50;;;;;;5071665;28;20029;-72
2021/06/08 04:57:59;;;;;;;7.05;6.25;;;25.80;50.10;;;;;;5052577;28;20423;-72
2021/06/08 05:00:41;;;;;;;7.55;6.85;;;26.40;48.30;;;;;;5072126;28;20430;-72
2021/06/08 05:03:08;;;;;;;6.80;6.13;;;26.80;47.00;;;;;;5073908;28;20127;-73
2021/06/08 05:05:38;;;;;;;6.72;6.13;;;27.30;47.00;;;;;;5073165;28;20033;-72
2021/06/08 05:08:20;;;;;;;6.00;5.20;;;27.10;45.40;;;;;;5073833;28;20673;-72
2021/06/08 05:11:08;;;;;;;6.75;6.05;;;27.20;45.90;;;;;;5074121;28;20029;-76
2021/06/08 05:13:36;;;;;;;8.75;6.32;;;27.30;45.00;;;;;;5074790;28;20025;-72
2021/06/08 05:16:03;;;;;;;6.90;6.03;;;26.90;45.50;;;;;;5073756;28;20095;-72
2021/06/08 05:18:29;;;;;;;6.22;5.82;;;27.00;45.20;;;;;;5073455;28;20063;-72
2021/06/08 05:20:55;;;;;;;6.68;6.03;;;27.00;44.80;;;;;;5073535;28;20563;-72
2021/06/08 05:23:22;;;;;;;6.82;5.75;;;26.80;44.70;;;;;;5073340;28;20077;-71
2021/06/08 05:25:51;;;;;;;6.32;5.82;;;26.40;45.20;;;;;;5072512;28;20119;-75
2021/06/08 05:28:18;;;;;;;5.85;5.35;;;26.40;46.30;;;;;;5073488;28;20020;-71
2021/06/08 05:30:46;;;;;;;7.00;6.05;;;26.10;46.10;;;;;;5074120;28;20511;-73
2021/06/08 05:33:11;;;;;;;6.25;5.68;;;26.00;46.20;;;;;;5072544;28;20036;-72
2021/06/08 05:35:38;;;;;;;6.90;6.20;;;26.10;46.40;;;;;;5073228;28;20466;-71
2021/06/08 05:38:08;;;;;;;5.80;5.20;;;26.30;46.10;;;;;;5073209;28;20024;-72
2021/06/08 05:40:39;;;;;;;8.23;6.75;;;26.10;46.40;;;;;;5052874;28;20116;-72
2021/06/08 05:43:06;;;;;;;7.23;6.50;;;25.70;46.70;;;;;;5051545;28;20248;-72
2021/06/08 05:45:32;;;;;;;7.55;6.60;;;25.50;47.70;;;;;;5053028;28;20619;-72
2021/06/08 05:47:59;;;;;;;7.88;6.32;;;25.30;47.60;;;;;;5053054;28;20031;-72
2021/06/08 05:50:25;;;;;;;8.85;6.90;;;25.30;47.80;;;;;;5062349;28;20037;-72
2021/06/08 05:52:54;;;;;;;9.85;7.03;;;25.00;48.20;;;;;;5072134;28;20060;-76
2021/06/08 05:55:25;;;;;;;7.15;6.45;;;25.10;48.60;;;;;;5072503;28;20405;-72
2021/06/08 05:57:54;;;;;;;7.43;6.70;;;25.90;48.40;;;;;;5073389;28;20036;-76
2021/06/08 06:00:21;;;;;;;7.10;6.40;;;26.20;46.40;;;;;;5073643;28;20037;-72
2021/06/08 06:02:48;;;;;;;7.40;6.70;;;26.20;46.80;;;;;;5079085;28;20473;-72
2021/06/08 06:05:15;;;;;;;6.57;5.97;;;26.50;46.60;;;;;;5081100;28;20086;-72
2021/06/08 06:07:42;;;;;;;10.40;6.05;;;26.80;46.20;;;;;;5073588;28;20052;-71
2021/06/08 06:10:09;;;;;;;5.40;5.00;;;27.50;46.10;;;;;;5072152;28;20028;-71
2021/06/08 06:12:37;;;;;;;7.20;6.03;;;28.40;45.10;;;;;;5072376;28;20027;-72
2021/06/08 06:15:05;;;;;;;6.90;5.57;;;29.20;43.50;;;;;;5071592;28;20056;-72
2021/06/08 06:17:34;;;;;;;6.32;5.65;;;29.60;41.90;;;;;;5073598;28;20103;-72
2021/06/08 06:20:00;;;;;;;6.97;5.53;;;29.20;41.60;;;;;;5072657;28;20060;-73
2021/06/08 06:22:25;;;;;;;6.10;5.60;;;29.00;42.40;;;;;;5073398;28;20520;-72
2021/06/08 06:24:51;;;;;;;4.65;4.30;;;29.10;42.00;;;;;;5070241;28;20032;-77
2021/06/08 06:27:18;;;;;;;7.13;4.82;;;29.60;42.50;;;;;;5072864;28;20453;-73
2021/06/08 06:29:46;;;;;;;7.40;5.38;;;30.10;42.30;;;;;;5073170;28;20031;-72
2021/06/08 06:32:12;;;;;;;5.65;5.05;;;30.30;40.00;;;;;;5071625;28;20028;-73
2021/06/08 06:34:37;;;;;;;5.10;3.90;;;30.10;40.80;;;;;;5070992;28;20079;-73
2021/06/08 06:37:05;;;;;;;7.13;5.03;;;30.50;41.00;;;;;;5074363;28;20083;-72
2021/06/08 06:39:34;;;;;;;5.78;5.22;;;30.30;39.00;;;;;;5072558;28;20043;-72
2021/06/08 06:42:03;;;;;;;9.30;5.82;;;29.70;40.20;;;;;;5069990;28;20047;-73
2021/06/08 06:44:31;;;;;;;6.00;5.40;;;29.50;40.80;;;;;;5072903;28;20465;-73
2021/06/08 06:46:57;;;;;;;6.20;5.63;;;29.50;40.90;;;;;;5071262;28;20029;-75
2021/06/08 06:49:24;;;;;;;7.03;4.65;;;29.30;41.10;;;;;;5072133;28;20040;-73
2021/06/08 06:51:50;;;;;;;6.28;5.78;;;29.60;42.10;;;;;;5071664;28;20024;-73
2021/06/08 06:54:17;;;;;;;6.43;5.82;;;30.40;40.30;;;;;;5071626;28;20274;-73
2021/06/08 06:56:44;;;;;;;6.38;5.57;;;30.80;39.60;;;;;;5072354;28;20047;-72
2021/06/08 06:59:10;;;;;;;5.93;5.40;;;30.60;39.90;;;;;;5087419;28;20023;-73
2021/06/08 07:01:37;;;;;;;6.10;5.60;;;30.30;39.60;;;;;;5093171;28;20049;-73
2021/06/08 07:04:05;;;;;;;5.30;4.72;;;30.20;40.00;;;;;;5091009;28;20069;-74
2021/06/08 07:06:31;;;;;;;6.05;4.88;;;30.70;40.60;;;;;;5091524;28;20032;-73
2021/06/08 07:08:59;;;;;;;5.15;4.30;;;31.20;39.70;;;;;;5089022;28;20037;-78
2021/06/08 07:11:26;;;;;;;4.40;3.90;;;31.70;39.00;;;;;;5070915;28;20035;-74
2021/06/08 07:13:52;;;;;;;4.97;4.68;;;31.90;38.10;;;;;;5086423;28;20094;-72
2021/06/08 07:16:23;;;;;;;5.53;4.38;;;32.20;38.20;;;;;;5091213;28;20099;-73
2021/06/08 07:18:49;;;;;;;8.57;4.30;;;32.80;37.70;;;;;;5091786;28;20020;-73
2021/06/08 07:21:17;;;;;;;5.07;4.47;;;33.10;37.80;;;;;;5080824;28;20037;-73
2021/06/08 07:23:48;;;;;;;4.88;4.47;;;33.10;37.30;;;;;;5070686;28;20059;-73
2021/06/08 07:26:17;;;;;;;4.88;4.55;;;33.00;37.80;;;;;;5072201;28;20016;-74
2021/06/08 07:28:43;;;;;;;5.03;4.57;;;33.00;37.90;;;;;;5080095;28;20496;-74
2021/06/08 07:31:13;;;;;;;5.47;4.75;;;32.90;37.30;;;;;;5079281;28;20029;-74
2021/06/08 07:34:01;;;;;;;5.47;5.07;;;33.00;37.60;;;;;;5079644;28;20396;-73
2021/06/08 07:36:40;;;;;;;5.78;4.47;;;33.00;38.00;;;;;;5094216;28;20162;-73
2021/06/08 07:39:23;;;;;;;5.97;4.63;;;33.20;38.70;;;;;;5071260;28;20021;-72
2021/06/08 07:41:54;;;;;;;5.85;5.20;;;33.20;37.80;;;;;;5072537;28;20472;-73
2021/06/08 07:44:45;;;;;;;5.07;4.57;;;33.10;37.60;;;;;;5038495;28;20048;-72
2021/06/08 07:47:14;;;;;;;6.13;4.60;;;33.20;37.50;;;;;;5071253;28;20020;-72
2021/06/08 07:49:42;;;;;;;3.97;3.38;;;33.20;37.50;;;;;;5070907;28;20490;-72
2021/06/08 07:52:08;;;;;;;4.72;4.28;;;33.20;37.80;;;;;;5071057;28;20024;-75
2021/06/08 07:54:35;;;;;;;6.07;4.45;;;33.30;37.40;;;;;;5072044;28;20071;-71
2021/06/08 07:57:01;;;;;;;5.28;4.78;;;33.40;36.40;;;;;;5071662;28;20155;-77
2021/06/08 07:59:27;;;;;;;8.63;4.82;;;33.30;36.80;;;;;;5072607;28;20107;-72
2021/06/08 08:01:52;;;;;;;3.53;3.25;;;33.20;37.20;;;;;;5075489;28;20174;-73
2021/06/08 08:04:19;;;;;;;10.63;5.38;;;33.20;37.20;;;;;;5065707;28;20032;-71
2021/06/08 08:06:51;;;;;;;4.88;4.45;;;33.40;37.30;;;;;;5071835;28;20033;-73
2021/06/08 08:09:21;;;;;;;4.13;3.83;;;33.60;35.00;;;;;;5077666;28;20035;-73
2021/06/08 08:11:50;;;;;;;3.92;3.60;;;33.30;36.40;;;;;;5082423;28;20044;-73
2021/06/08 08:14:17;;;;;;;4.28;3.88;;;33.10;35.30;;;;;;5069779;28;20029;-73
2021/06/08 08:16:47;;;;;;;17.35;9.48;;;33.00;35.90;;;;;;5067066;28;20036;-73
2021/06/08 08:19:15;;;;;;;5.38;4.88;;;32.70;38.20;;;;;;5054041;28;20039;-76
2021/06/08 08:21:41;;;;;;;5.95;5.07;;;32.70;36.00;;;;;;5066298;28;20101;-79
2021/06/08 08:24:07;;;;;;;9.77;5.53;;;31.60;37.80;;;;;;5067526;28;20032;-78
2021/06/08 08:26:32;;;;;;;6.35;5.80;;;31.60;39.10;;;;;;5065170;28;20066;-74
2021/06/08 08:28:59;;;;;;;6.13;5.55;;;31.60;38.00;;;;;;5070307;28;20472;-72
2021/06/08 08:31:28;;;;;;;6.10;5.00;;;31.00;38.90;;;;;;5059567;28;20297;-78
2021/06/08 08:33:54;;;;;;;7.35;4.88;;;31.20;39.50;;;;;;5055376;28;20591;-73
2021/06/08 08:36:20;;;;;;;9.52;6.43;;;31.70;39.30;;;;;;5073797;28;20031;-73
2021/06/08 08:38:46;;;;;;;6.95;5.30;;;32.10;38.20;;;;;;5075172;28;20141;-73
2021/06/08 08:41:12;;;;;;;7.32;6.60;;;31.70;39.10;;;;;;5074165;28;20477;-73
2021/06/08 08:43:46;;;;;;;4.70;4.28;;;31.90;38.50;;;;;;5060249;28;20125;-79
2021/06/08 08:46:13;;;;;;;5.03;4.63;;;31.90;39.60;;;;;;5035056;28;20699;-79
2021/06/08 08:48:41;;;;;;;5.97;4.95;;;32.40;39.00;;;;;;5047447;28;20025;-73
2021/06/08 08:51:07;;;;;;;5.57;4.90;;;32.70;38.50;;;;;;5061008;28;20028;-80
2021/06/08 08:53:36;;;;;;;3.67;3.33;;;33.00;36.90;;;;;;5064663;28;20035;-73
2021/06/08 08:56:01;;;;;;;3.40;2.97;;;33.20;36.80;;;;;;5070508;28;20021;-79
2021/06/08 08:58:29;;;;;;;6.00;5.50;;;33.40;36.20;;;;;;5056158;28;20173;-77
2021/06/08 09:00:57;;;;;;;3.50;2.75;;;33.30;35.20;;;;;;5068218;28;20086;-73
2021/06/08 09:03:23;;;;;;;3.30;2.83;;;32.40;37.60;;;;;;5071366;28;20036;-72
2021/06/08 09:05:49;;;;;;;4.53;3.13;;;32.80;36.50;;;;;;5086196;28;20118;-72
2021/06/08 09:08:14;;;;;;;4.70;3.13;;;33.20;36.50;;;;;;5089844;28;20555;-72
2021/06/08 09:10:42;;;;;;;4.63;3.78;;;33.70;36.40;;;;;;5085111;28;20042;-72
2021/06/08 09:13:08;;;;;;;4.50;4.10;;;33.90;35.00;;;;;;5080721;28;20077;-79
2021/06/08 09:15:35;;;;;;;4.50;3.83;;;34.00;35.20;;;;;;5073268;28;20032;-73
2021/06/08 09:18:02;;;;;;;6.03;3.42;;;33.80;34.60;;;;;;5072967;28;20032;-73
2021/06/08 09:20:28;;;;;;;4.60;4.20;;;33.50;34.50;;;;;;5077696;28;20028;-73
2021/06/08 09:23:02;;;;;;;6.82;4.78;;;33.40;35.70;;;;;;5072843;28;20035;-73
2021/06/08 09:25:34;;;;;;;5.10;4.70;;;33.20;35.80;;;;;;5073540;28;20016;-73
2021/06/08 09:28:26;;;;;;;6.50;5.90;;;32.80;36.40;;;;;;5092440;28;20057;-73
2021/06/08 09:30:55;;;;;;;;;;;31.90;35.40;;;;;;5071908;28;20029;-73
2021/06/08 09:33:21;;;;;;;4.40;4.00;;;31.60;36.50;;;;;;5088960;28;19928;-73
2021/06/08 09:36:13;;;;;;;3.30;3.10;;;31.10;35.60;;;;;;5072920;28;20024;-72
2021/06/08 09:38:59;;;;;;;1.95;1.60;;;30.30;34.90;;;;;;5071792;28;20037;-73
2021/06/08 09:41:29;;;;;;;3.28;2.60;;;29.50;35.20;;;;;;5073471;28;20031;-74
2021/06/08 09:44:14;;;;;;;3.28;2.17;;;29.30;35.10;;;;;;5072020;28;20116;-72
2021/06/08 09:46:45;;;;;;;4.78;4.25;;;29.80;38.40;;;;;;5071993;28;20039;-73
2021/06/08 09:49:13;;;;;;;5.70;5.05;;;30.90;38.80;;;;;;5073746;28;20461;-73
2021/06/08 09:51:50;;;;;;;3.67;3.22;;;30.60;35.40;;;;;;5073501;28;20129;-72
2021/06/08 09:54:43;;;;;;;5.65;4.72;;;30.70;36.20;;;;;;5080627;28;20059;-80
2021/06/08 09:57:26;;;;;;;7.80;7.10;;;30.40;36.20;;;;;;5078564;28;20090;-71
2021/06/08 09:59:56;;;;;;;7.05;6.38;;;29.80;36.20;;;;;;5081745;28;20023;-72
2021/06/08 10:02:28;;;;;;;5.95;5.35;;;29.00;38.00;;;;;;5087463;28;20025;-72
2021/06/08 10:05:14;;;;;;;6.43;5.82;;;28.80;38.70;;;;;;5074143;28;20033;-73
2021/06/08 10:07:39;;;;;;;6.55;5.32;;;28.60;38.20;;;;;;5071775;28;20111;-74
2021/06/08 10:10:13;;;;;;;5.82;4.68;;;29.00;39.80;;;;;;5055603;28;20451;-74
2021/06/08 10:12:59;;;;;;;4.15;3.85;;;29.80;37.00;;;;;;5071474;28;20036;-73
2021/06/08 10:15:28;;;;;;;6.80;5.25;;;30.30;38.70;;;;;;5072946;28;20107;-73
2021/06/08 10:18:07;;;;;;;3.53;3.22;;;31.00;36.20;;;;;;5068318;28;20468;-72
2021/06/08 10:20:36;;;;;;;4.72;4.30;;;30.40;35.40;;;;;;5071138;28;20388;-73
2021/06/08 10:23:19;;;;;;;3.70;3.05;;;30.10;37.80;;;;;;5073740;28;20376;-72
2021/06/08 10:25:46;;;;;;;6.25;5.38;;;30.30;38.20;;;;;;5072350;28;20016;-72
2021/06/08 10:28:12;;;;;;;5.03;4.63;;;30.00;36.10;;;;;;5072175;28;20020;-71
2021/06/08 10:30:48;;;;;;;5.03;4.63;;;29.90;37.60;;;;;;5072574;28;20060;-72
2021/06/08 10:33:14;;;;;;;5.97;4.88;;;29.90;36.60;;;;;;5072257;28;20021;-72
2021/06/08 10:35:40;;;;;;;5.65;4.78;;;30.10;36.80;;;;;;5072282;28;20025;-71
2021/06/08 10:38:08;;;;;;;4.93;4.53;;;29.90;38.40;;;;;;5071463;28;20031;-71
2021/06/08 10:40:35;;;;;;;3.83;3.53;;;29.70;38.40;;;;;;5070603;28;20028;-72
2021/06/08 10:43:02;;;;;;;4.68;4.28;;;29.60;39.90;;;;;;5072596;28;20056;-72
2021/06/08 10:45:36;;;;;;;4.88;4.43;;;29.60;37.80;;;;;;5076901;28;20056;-73
2021/06/08 10:48:29;;;;;;;5.72;4.93;;;29.30;39.80;;;;;;5056272;28;20028;-72
2021/06/08 10:51:15;;;;;;;6.45;5.85;;;29.60;39.30;;;;;;5072285;28;20028;-73
2021/06/08 10:53:45;;;;;;;6.88;5.43;;;30.30;38.90;;;;;;5056579;28;20024;-72
2021/06/08 10:56:30;;;;;;;5.80;5.18;;;29.90;37.80;;;;;;5070329;28;20028;-71
2021/06/08 10:58:59;;;;;;;6.45;5.90;;;28.90;39.80;;;;;;5071307;28;20353;-72
2021/06/08 11:01:31;;;;;;;4.50;4.10;;;29.30;39.60;;;;;;5070560;28;20107;-72
2021/06/08 11:03:58;;;;;;;7.15;6.50;;;29.00;40.10;;;;;;5071500;28;20028;-71
2021/06/08 11:06:48;;;;;;;6.53;5.80;;;29.40;38.70;;;;;;5070580;28;20066;-77
2021/06/08 11:09:16;;;;;;;5.68;5.05;;;28.80;39.20;;;;;;5070981;28;20068;-73
2021/06/08 11:11:54;;;;;;;5.65;5.15;;;28.50;39.00;;;;;;5066037;28;20039;-71
2021/06/08 11:17:08;;;;;;;4.90;4.50;;;28.00;41.20;;;;;;5072469;28;20072;-73
2021/06/08 11:19:49;;;;;;;4.60;3.90;;;28.40;39.90;;;;;;5071358;28;20432;-70
2021/06/08 11:22:17;;;;;;;6.03;5.47;;;28.60;37.80;;;;;;5070812;28;20031;-71
2021/06/08 11:24:49;;;;;;;5.72;5.10;;;28.20;39.50;;;;;;5071521;28;20366;-72
2021/06/08 11:27:17;;;;;;;5.95;5.43;;;28.20;40.40;;;;;;5070891;28;20025;-71
2021/06/08 11:29:44;;;;;;;3.92;3.50;;;28.20;40.80;;;;;;5071420;28;20036;-72
2021/06/08 11:32:12;;;;;;;4.43;4.00;;;28.70;40.70;;;;;;5070876;28;20075;-72
2021/06/08 11:35:06;;;;;;;4.55;4.18;;;28.90;38.50;;;;;;5070597;28;20028;-72
2021/06/08 11:37:56;;;;;;;4.93;2.88;;;28.40;39.20;;;;;;5069694;28;20040;-72
2021/06/08 11:43:04;;;;;;;6.55;5.13;;;29.50;39.20;;;;;;5071573;28;20044;-72
2021/06/08 11:45:37;;;;;;;7.15;4.80;;;29.00;39.80;;;;;;5071038;28;20025;-73
2021/06/08 11:48:04;;;;;;;6.68;5.32;;;28.90;38.20;;;;;;5072527;28;20025;-72
2021/06/08 11:50:42;;;;;;;5.25;3.70;;;29.00;38.50;;;;;;5069380;28;20503;-78
2021/06/08 11:53:15;;;;;;;5.15;3.10;;;28.80;38.50;;;;;;5070385;28;20037;-72
2021/06/08 11:55:41;;;;;;;3.40;3.00;;;29.30;39.60;;;;;;5069936;28;20029;-73
2021/06/08 11:58:30;;;;;;;4.05;3.65;;;29.80;39.60;;;;;;5070126;28;20097;-72
2021/06/08 12:00:55;;;;;;;4.70;4.22;;;30.00;38.00;;;;;;5070472;28;20117;-72
2021/06/08 12:03:32;;;;;;;5.55;4.32;;;29.50;38.10;;;;;;5070469;28;20492;-72
2021/06/08 12:05:58;;;;;;;3.30;3.10;;;29.60;39.40;;;;;;5070258;28;20062;-72
2021/06/08 12:08:32;;;;;;;3.30;3.00;;;30.00;39.50;;;;;;5073203;28;20156;-72
2021/06/08 12:11:18;;;;;;;6.28;3.70;;;30.20;38.30;;;;;;5074638;28;20025;-71
2021/06/08 12:13:45;;;;;;;5.18;4.13;;;30.40;38.70;;;;;;5072976;28;20036;-73
2021/06/08 12:16:11;;;;;;;4.72;3.90;;;30.70;38.30;;;;;;5074518;28;20033;-73
2021/06/08 12:18:38;;;;;;;7.50;6.70;;;30.60;38.00;;;;;;5073791;28;20021;-73
2021/06/08 12:21:18;;;;;;;5.63;4.57;;;30.60;38.20;;;;;;5074068;28;20037;-74
2021/06/08 12:23:44;;;;;;;5.93;5.43;;;30.00;38.60;;;;;;5074110;28;20031;-72
2021/06/08 12:26:15;;;;;;;3.80;3.50;;;29.20;39.00;;;;;;5075297;28;20024;-72
2021/06/08 12:28:44;;;;;;;6.22;5.63;;;29.30;40.90;;;;;;5073296;28;20043;-72
2021/06/08 12:31:14;;;;;;;4.32;3.90;;;29.50;38.90;;;;;;5073537;28;20036;-73
2021/06/08 12:33:41;;;;;;;4.20;3.90;;;29.40;39.80;;;;;;5072921;28;20082;-73
2021/06/08 12:36:09;;;;;;;6.40;4.20;;;29.90;40.60;;;;;;5073941;28;20526;-72
2021/06/08 12:38:35;;;;;;;4.40;4.00;;;30.40;40.00;;;;;;5074662;28;20432;-76
2021/06/08 12:41:10;;;;;;;5.85;5.35;;;30.80;40.30;;;;;;5075267;28;20028;-72
2021/06/08 12:43:45;;;;;;;5.90;4.45;;;31.00;39.00;;;;;;5073000;28;20442;-75
2021/06/08 12:46:11;;;;;;;5.43;4.93;;;30.60;39.90;;;;;;5075252;28;20013;-72
2021/06/08 12:48:37;;;;;;;6.22;4.55;;;30.60;39.20;;;;;;5074093;28;20107;-72
2021/06/08 12:51:13;;;;;;;4.88;3.95;;;30.80;39.30;;;;;;5073889;28;20115;-71
2021/06/08 12:53:39;;;;;;;6.25;3.92;;;30.50;37.30;;;;;;5074049;28;20060;-72
2021/06/08 12:56:05;;;;;;;4.63;4.20;;;30.20;38.20;;;;;;5074066;28;20032;-72
2021/06/08 12:58:35;;;;;;;5.10;3.97;;;30.10;37.60;;;;;;5074433;28;20029;-71